Time;durP1;ratioP1;P1;durP2;ratioP2;P2;SDS_P1;SDS_P2;PMS_P1;PMS_P2;Temp;Humidity;BMP_temperature;BMP_pressure;BME280_temperature;BME280_humidity;BME280_pressure;Samples;Min_cycle;Max_cycle;Signal;HPM_P1;HPM_P2
2022/10/08 00:00:23;;;;;;;7.87;5.77;;;;;;;;;;5098121;28;20265;-73
2022/10/08 00:02:49;;;;;;;7.23;6.33;;;;;;;;;;5101174;28;20292;-73
2022/10/08 00:05:14;;;;;;;8.10;6.80;;;;;;;;;;5102759;28;20193;-73
2022/10/08 00:07:41;;;;;;;10.30;6.57;;;;;;;;;;5095372;28;20171;-73
2022/10/08 00:10:06;;;;;;;11.70;7.13;;;;;;;;;;5093646;28;20209;-73
2022/10/08 00:12:32;;;;;;;12.03;7.10;;;;;;;;;;5095322;28;20200;-73
2022/10/08 00:14:57;;;;;;;9.00;6.33;;;;;;;;;;5100637;28;20214;-74
2022/10/08 00:17:22;;;;;;;11.73;6.97;;;;;;;;;;5099204;28;20206;-73
2022/10/08 00:19:47;;;;;;;9.27;5.87;;;;;;;;;;5097776;28;20192;-74
2022/10/08 00:22:12;;;;;;;7.30;6.60;;;;;;;;;;5102011;28;20184;-73
2022/10/08 00:24:38;;;;;;;10.87;7.77;;;;;;;;;;5097882;28;20205;-74
2022/10/08 00:27:04;;;;;;;8.83;6.43;;;;;;;;;;5102514;28;20173;-73
2022/10/08 00:29:29;;;;;;;11.27;6.23;;;;;;;;;;5094262;28;20167;-73
2022/10/08 00:31:54;;;;;;;8.47;5.90;;;;;;;;;;5105055;28;20179;-73
2022/10/08 00:34:22;;;;;;;9.70;5.47;;;;;;;;;;5102418;28;20203;-73
2022/10/08 00:36:49;;;;;;;7.67;5.87;;;;;;;;;;5101965;28;20206;-73
2022/10/08 00:39:16;;;;;;;11.93;6.67;;;;;;;;;;5099405;28;20181;-73
2022/10/08 00:41:42;;;;;;;6.83;5.53;;;;;;;;;;5098772;28;20187;-73
2022/10/08 00:44:28;;;;;;;8.80;6.27;;;;;;;;;;5097253;28;20275;-74
2022/10/08 00:46:53;;;;;;;6.40;5.80;;;;;;;;;;5102206;28;20175;-73
2022/10/08 00:49:19;;;;;;;8.23;5.77;;;;;;;;;;5101883;28;20169;-73
2022/10/08 00:51:48;;;;;;;9.67;5.90;;;;;;;;;;5106325;28;20218;-73
2022/10/08 00:54:14;;;;;;;8.40;5.67;;;;;;;;;;5104353;28;20188;-73
2022/10/08 00:56:39;;;;;;;10.53;6.30;;;;;;;;;;5102736;28;20187;-73
2022/10/08 00:59:06;;;;;;;7.30;6.17;;;;;;;;;;5106065;28;20180;-73
2022/10/08 01:01:31;;;;;;;6.87;6.07;;;;;;;;;;5122231;28;20227;-73
2022/10/08 01:04:00;;;;;;;10.23;5.53;;;;;;;;;;5103620;28;20203;-73
2022/10/08 01:06:27;;;;;;;8.00;5.63;;;;;;;;;;5099965;28;20199;-73
2022/10/08 01:08:53;;;;;;;8.93;5.53;;;;;;;;;;5103273;28;20175;-74
2022/10/08 01:11:21;;;;;;;11.07;5.60;;;;;;;;;;5099407;28;20183;-74
2022/10/08 01:13:52;;;;;;;6.63;5.47;;;;;;;;;;5113699;28;20176;-73
2022/10/08 01:16:30;;;;;;;12.47;6.30;;;;;;;;;;5103207;27;20178;-73
2022/10/08 01:18:55;;;;;;;11.47;5.67;;;;;;;;;;5123604;27;20182;-73
2022/10/08 01:21:21;;;;;;;10.17;6.30;;;;;;;;;;5106287;27;20236;-74
2022/10/08 01:24:06;;;;;;;10.67;6.40;;;;;;;;;;5121011;27;20294;-73
2022/10/08 01:26:31;;;;;;;11.37;6.80;;;;;;;;;;5105227;27;20177;-73
2022/10/08 01:29:03;;;;;;;7.83;5.47;;;;;;;;;;5098094;28;20179;-73
2022/10/08 01:31:32;;;;;;;10.27;6.17;;;;;;;;;;5101380;27;20171;-73
2022/10/08 01:34:02;;;;;;;7.33;6.73;;;;;;;;;;5125850;27;20201;-73
2022/10/08 01:36:30;;;;;;;7.53;5.77;;;;;;;;;;5108159;27;20186;-73
2022/10/08 01:38:59;;;;;;;8.33;5.70;;;;;;;;;;5106923;27;20268;-73
2022/10/08 01:41:25;;;;;;;9.83;6.47;;;;;;;;;;5112586;27;20239;-73
2022/10/08 01:43:56;;;;;;;6.87;5.50;;;;;;;;;;5131030;27;20233;-73
2022/10/08 01:48:50;;;;;;;12.27;5.50;;;;;;;;;;5067327;28;20222;-73
2022/10/08 01:51:23;;;;;;;8.37;6.03;;;;;;;;;;5069637;28;20178;-73
2022/10/08 01:53:50;;;;;;;6.37;5.33;;;;;;;;;;5066570;28;20202;-73
2022/10/08 01:56:17;;;;;;;6.43;5.10;;;;;;;;;;5063974;28;20173;-73
2022/10/08 01:58:55;;;;;;;10.63;6.47;;;;;;;;;;5060696;28;20208;-73
2022/10/08 02:01:29;;;;;;;9.97;5.87;;;;;;;;;;5082575;28;20259;-73
2022/10/08 02:06:39;;;;;;;9.23;5.27;;;;;;;;;;5064914;28;20222;-73
2022/10/08 02:09:05;;;;;;;7.23;5.77;;;;;;;;;;5066235;28;20181;-73
2022/10/08 02:11:30;;;;;;;10.20;5.13;;;;;;;;;;5066974;28;20196;-73
2022/10/08 02:13:55;;;;;;;7.00;5.17;;;;;;;;;;5067001;28;20211;-73
2022/10/08 02:16:26;;;;;;;7.73;5.07;;;;;;;;;;5063344;28;20260;-73
2022/10/08 02:19:00;;;;;;;7.87;5.30;;;;;;;;;;5066615;28;20191;-73
2022/10/08 02:21:27;;;;;;;9.73;5.43;;;;;;;;;;5084392;28;20196;-73
2022/10/08 02:23:54;;;;;;;10.87;5.13;;;;;;;;;;5071032;28;20216;-74
2022/10/08 02:26:25;;;;;;;9.40;6.20;;;;;;;;;;5067617;28;20192;-73
2022/10/08 02:29:00;;;;;;;10.87;5.50;;;;;;;;;;5069500;28;20192;-73
2022/10/08 02:31:32;;;;;;;7.63;5.27;;;;;;;;;;5063084;28;20218;-73
2022/10/08 02:34:03;;;;;;;10.73;5.50;;;;;;;;;;5069672;28;20273;-73
2022/10/08 02:36:34;;;;;;;12.03;5.57;;;;;;;;;;5071886;28;20177;-73
2022/10/08 02:39:03;;;;;;;8.03;5.60;;;;;;;;;;5065796;28;20252;-73
2022/10/08 02:41:36;;;;;;;9.30;6.13;;;;;;;;;;5062401;28;20189;-73
2022/10/08 02:44:05;;;;;;;12.93;5.10;;;;;;;;;;5063651;28;20207;-73
2022/10/08 02:46:32;;;;;;;9.00;5.23;;;;;;;;;;5059353;28;20189;-73
2022/10/08 02:49:09;;;;;;;9.90;5.47;;;;;;;;;;5071219;28;20334;-73
2022/10/08 02:51:37;;;;;;;9.27;5.73;;;;;;;;;;5060060;28;20217;-73
2022/10/08 02:54:03;;;;;;;13.20;5.63;;;;;;;;;;5060868;28;20191;-73
2022/10/08 02:56:45;;;;;;;9.17;5.60;;;;;;;;;;5058261;28;20182;-73
2022/10/08 02:59:11;;;;;;;7.87;5.17;;;;;;;;;;5066643;28;20180;-74
2022/10/08 03:01:38;;;;;;;9.73;6.60;;;;;;;;;;5067754;28;20248;-74
2022/10/08 03:04:07;;;;;;;9.57;5.63;;;;;;;;;;5065896;28;20340;-74
2022/10/08 03:06:33;;;;;;;10.97;5.73;;;;;;;;;;5063084;28;20181;-73
2022/10/08 03:08:59;;;;;;;10.77;5.53;;;;;;;;;;5070262;28;20185;-73
2022/10/08 03:11:25;;;;;;;9.80;6.23;;;;;;;;;;5069814;28;20182;-73
2022/10/08 03:13:52;;;;;;;8.87;6.90;;;;;;;;;;5065773;28;20257;-74
2022/10/08 03:16:21;;;;;;;10.73;7.63;;;;;;;;;;5067960;28;20612;-73
2022/10/08 03:18:46;;;;;;;9.60;7.13;;;;;;;;;;5067272;28;20217;-73
2022/10/08 03:21:13;;;;;;;12.20;7.77;;;;;;;;;;5070818;28;20224;-74
2022/10/08 03:23:38;;;;;;;12.70;8.30;;;;;;;;;;5068553;28;20219;-73
2022/10/08 03:26:03;;;;;;;14.60;8.23;;;;;;;;;;5064459;28;20176;-73
2022/10/08 03:28:29;;;;;;;15.30;8.67;;;;;;;;;;5060272;28;20181;-73
2022/10/08 03:30:54;;;;;;;12.40;7.70;;;;;;;;;;5065231;28;20189;-73
2022/10/08 03:33:19;;;;;;;9.73;7.90;;;;;;;;;;5058976;28;20194;-73
2022/10/08 03:35:45;;;;;;;9.67;7.90;;;;;;;;;;5063515;28;20178;-73
2022/10/08 03:38:10;;;;;;;16.53;10.10;;;;;;;;;;5066530;28;20207;-73
2022/10/08 03:40:35;;;;;;;9.97;8.97;;;;;;;;;;5069604;28;20306;-73
2022/10/08 03:43:01;;;;;;;13.13;8.80;;;;;;;;;;5069771;28;20200;-74
2022/10/08 03:45:26;;;;;;;18.40;9.67;;;;;;;;;;5061956;28;20182;-73
2022/10/08 03:47:51;;;;;;;11.43;9.63;;;;;;;;;;5069762;28;20244;-73
2022/10/08 03:50:17;;;;;;;13.67;10.47;;;;;;;;;;5067998;28;20182;-74
2022/10/08 03:52:42;;;;;;;12.40;10.07;;;;;;;;;;5067054;28;20183;-73
2022/10/08 03:55:07;;;;;;;11.40;10.10;;;;;;;;;;5058966;28;20181;-73
2022/10/08 03:57:32;;;;;;;13.73;10.07;;;;;;;;;;5069066;28;20184;-73
2022/10/08 03:59:57;;;;;;;12.63;9.97;;;;;;;;;;5066502;28;20245;-73
2022/10/08 04:02:23;;;;;;;12.20;9.63;;;;;;;;;;5069600;28;20269;-73
2022/10/08 04:04:48;;;;;;;15.37;9.87;;;;;;;;;;5072748;28;20215;-73
2022/10/08 04:07:13;;;;;;;11.67;10.37;;;;;;;;;;5070854;28;20181;-73
2022/10/08 04:09:39;;;;;;;13.60;11.10;;;;;;;;;;5064859;28;20226;-73
2022/10/08 04:12:04;;;;;;;17.03;12.30;;;;;;;;;;5059435;28;20279;-73
2022/10/08 04:14:29;;;;;;;14.53;12.87;;;;;;;;;;5062528;28;20189;-73
2022/10/08 04:16:54;;;;;;;15.07;12.37;;;;;;;;;;5063267;28;20190;-74
2022/10/08 04:19:20;;;;;;;13.07;11.43;;;;;;;;;;5063369;28;20185;-74
2022/10/08 04:21:45;;;;;;;13.70;11.57;;;;;;;;;;5069763;28;20284;-73
2022/10/08 04:24:10;;;;;;;13.93;11.07;;;;;;;;;;5070226;28;20208;-74
2022/10/08 04:26:35;;;;;;;12.00;10.80;;;;;;;;;;5063632;28;20186;-73
2022/10/08 04:29:01;;;;;;;12.20;10.03;;;;;;;;;;5068640;28;20192;-73
2022/10/08 04:31:26;;;;;;;11.30;10.10;;;;;;;;;;5060807;28;20175;-73
2022/10/08 04:33:51;;;;;;;15.93;9.37;;;;;;;;;;5066949;28;20189;-74
2022/10/08 04:36:21;;;;;;;13.10;9.00;;;;;;;;;;5068046;28;20184;-73
2022/10/08 04:38:47;;;;;;;12.60;8.50;;;;;;;;;;5068763;28;20185;-73
2022/10/08 04:41:13;;;;;;;13.40;8.70;;;;;;;;;;5075155;28;20190;-73
2022/10/08 04:43:39;;;;;;;9.93;8.90;;;;;;;;;;5060553;28;20273;-73
2022/10/08 04:46:06;;;;;;;12.53;8.63;;;;;;;;;;5083967;28;20271;-73
2022/10/08 04:48:32;;;;;;;14.03;8.27;;;;;;;;;;5078397;28;20361;-73
2022/10/08 04:51:02;;;;;;;10.30;8.23;;;;;;;;;;5066934;28;20266;-73
2022/10/08 04:53:27;;;;;;;11.13;8.27;;;;;;;;;;5080008;28;20181;-73
2022/10/08 04:55:53;;;;;;;9.67;7.47;;;;;;;;;;5069667;28;20187;-73
2022/10/08 04:58:19;;;;;;;12.17;8.67;;;;;;;;;;5072367;28;20203;-73
2022/10/08 05:00:44;;;;;;;12.63;8.33;;;;;;;;;;5069174;28;20196;-73
2022/10/08 05:03:09;;;;;;;12.73;7.90;;;;;;;;;;5066082;28;20255;-73
2022/10/08 05:05:38;;;;;;;10.10;7.47;;;;;;;;;;5061203;28;20176;-73
2022/10/08 05:08:03;;;;;;;13.40;7.70;;;;;;;;;;5069090;28;20203;-73
2022/10/08 05:10:29;;;;;;;13.77;8.53;;;;;;;;;;5061508;28;20173;-74
2022/10/08 05:12:54;;;;;;;11.53;7.20;;;;;;;;;;5068272;28;20222;-73
2022/10/08 05:15:22;;;;;;;14.50;8.20;;;;;;;;;;5058980;28;20190;-74
2022/10/08 05:17:47;;;;;;;8.70;7.17;;;;;;;;;;5070996;28;20280;-72
2022/10/08 05:20:13;;;;;;;11.93;7.10;;;;;;;;;;5059569;28;20219;-73
2022/10/08 05:22:38;;;;;;;11.93;6.73;;;;;;;;;;5071604;28;20185;-72
2022/10/08 05:25:03;;;;;;;8.93;6.73;;;;;;;;;;5072459;28;20236;-73
2022/10/08 05:27:30;;;;;;;18.30;13.23;;;;;;;;;;5065593;28;20180;-73
2022/10/08 05:29:55;;;;;;;9.53;6.77;;;;;;;;;;5067252;28;20196;-73
2022/10/08 05:32:20;;;;;;;10.73;7.00;;;;;;;;;;5064823;28;20172;-73
2022/10/08 05:34:45;;;;;;;9.90;7.40;;;;;;;;;;5065308;28;20191;-74
2022/10/08 05:37:10;;;;;;;11.70;6.30;;;;;;;;;;5067988;28;20254;-73
2022/10/08 05:39:35;;;;;;;10.00;6.80;;;;;;;;;;5060250;28;20241;-73
2022/10/08 05:42:01;;;;;;;10.17;7.07;;;;;;;;;;5074502;28;20175;-73
2022/10/08 05:44:26;;;;;;;8.97;6.60;;;;;;;;;;5065214;28;20208;-73
2022/10/08 05:46:51;;;;;;;13.90;7.67;;;;;;;;;;5063865;28;20227;-73
2022/10/08 05:49:18;;;;;;;13.73;9.87;;;;;;;;;;5062391;28;20198;-73
2022/10/08 05:51:43;;;;;;;12.10;7.40;;;;;;;;;;5065103;28;20176;-73
2022/10/08 05:54:08;;;;;;;7.10;6.37;;;;;;;;;;5066201;28;20201;-73
2022/10/08 05:56:33;;;;;;;6.63;6.00;;;;;;;;;;5060828;28;20188;-73
2022/10/08 05:58:59;;;;;;;13.17;7.13;;;;;;;;;;5065002;28;20179;-73
2022/10/08 06:01:26;;;;;;;11.27;7.67;;;;;;;;;;5069614;28;20210;-73
2022/10/08 06:03:53;;;;;;;7.27;5.87;;;;;;;;;;5067242;28;20211;-73
2022/10/08 06:06:19;;;;;;;10.50;6.20;;;;;;;;;;5085642;28;20171;-73
2022/10/08 06:08:45;;;;;;;9.60;6.30;;;;;;;;;;5068120;28;20186;-73
2022/10/08 06:11:10;;;;;;;7.10;5.97;;;;;;;;;;5069234;28;20177;-73
2022/10/08 06:13:35;;;;;;;10.17;6.20;;;;;;;;;;5069786;28;20227;-72
2022/10/08 06:16:03;;;;;;;16.03;7.27;;;;;;;;;;5073336;28;20183;-73
2022/10/08 06:18:29;;;;;;;9.80;7.33;;;;;;;;;;5069925;28;20190;-73
2022/10/08 06:20:54;;;;;;;9.33;8.17;;;;;;;;;;5064069;28;20244;-73
2022/10/08 06:23:20;;;;;;;12.97;6.53;;;;;;;;;;5068606;28;20201;-73
2022/10/08 06:25:45;;;;;;;10.50;6.13;;;;;;;;;;5065264;28;20183;-73
2022/10/08 06:28:11;;;;;;;8.53;5.43;;;;;;;;;;5069424;28;20172;-73
2022/10/08 06:30:37;;;;;;;10.50;5.40;;;;;;;;;;5065683;28;20178;-74
2022/10/08 06:33:03;;;;;;;5.67;4.97;;;;;;;;;;5061868;28;20194;-73
2022/10/08 06:35:28;;;;;;;9.03;6.13;;;;;;;;;;5059889;28;20176;-74
2022/10/08 06:37:54;;;;;;;7.53;5.47;;;;;;;;;;5071163;28;20190;-73
2022/10/08 06:40:19;;;;;;;12.00;6.63;;;;;;;;;;5071664;28;20187;-72
2022/10/08 06:42:44;;;;;;;7.77;4.63;;;;;;;;;;5077410;28;20182;-73
2022/10/08 06:45:09;;;;;;;8.27;4.93;;;;;;;;;;5074364;28;20440;-72
2022/10/08 06:47:35;;;;;;;9.13;5.27;;;;;;;;;;5069668;28;20238;-73
2022/10/08 06:50:00;;;;;;;7.57;5.47;;;;;;;;;;5060899;28;20186;-72
2022/10/08 06:52:25;;;;;;;9.97;5.13;;;;;;;;;;5073109;28;20179;-74
2022/10/08 06:54:51;;;;;;;8.57;4.97;;;;;;;;;;5066012;28;20186;-73
2022/10/08 06:57:16;;;;;;;5.87;4.83;;;;;;;;;;5077204;28;20189;-72
2022/10/08 06:59:41;;;;;;;7.83;4.43;;;;;;;;;;5070848;28;20190;-73
2022/10/08 07:02:08;;;;;;;6.47;4.60;;;;;;;;;;5071042;28;20189;-72
2022/10/08 07:04:34;;;;;;;6.83;5.30;;;;;;;;;;5067940;28;20215;-73
2022/10/08 07:06:59;;;;;;;5.87;3.83;;;;;;;;;;5078227;28;20184;-73
2022/10/08 07:09:24;;;;;;;8.20;4.97;;;;;;;;;;5068255;28;20185;-72
2022/10/08 07:11:49;;;;;;;8.17;3.90;;;;;;;;;;5067560;28;20188;-73
2022/10/08 07:14:14;;;;;;;6.73;4.60;;;;;;;;;;5069376;28;20286;-73
2022/10/08 07:16:40;;;;;;;8.00;3.90;;;;;;;;;;5060308;28;20281;-72
2022/10/08 07:19:05;;;;;;;12.47;4.63;;;;;;;;;;5068970;28;20215;-73
2022/10/08 07:21:30;;;;;;;5.27;3.77;;;;;;;;;;5060698;28;20195;-74
2022/10/08 07:23:57;;;;;;;7.60;3.80;;;;;;;;;;5070957;28;20214;-73
2022/10/08 07:26:24;;;;;;;8.13;3.90;;;;;;;;;;5055954;28;20266;-73
2022/10/08 07:28:54;;;;;;;7.00;4.07;;;;;;;;;;5073112;28;20181;-73
2022/10/08 07:31:25;;;;;;;11.07;3.80;;;;;;;;;;5062021;28;20188;-74
2022/10/08 07:33:51;;;;;;;4.50;3.40;;;;;;;;;;5059081;28;20245;-72
2022/10/08 07:36:20;;;;;;;5.93;3.40;;;;;;;;;;5066918;28;20187;-74
2022/10/08 07:38:46;;;;;;;7.50;3.77;;;;;;;;;;5074738;28;20540;-73
2022/10/08 07:41:13;;;;;;;7.70;3.37;;;;;;;;;;5069095;28;20182;-73
2022/10/08 07:43:41;;;;;;;7.33;3.50;;;;;;;;;;5067527;28;20248;-73
2022/10/08 07:46:08;;;;;;;6.60;3.87;;;;;;;;;;5067574;28;20200;-73
2022/10/08 07:48:34;;;;;;;9.53;3.27;;;;;;;;;;5066358;28;20217;-72
2022/10/08 07:51:10;;;;;;;9.57;3.10;;;;;;;;;;5069419;28;20177;-73
2022/10/08 07:53:35;;;;;;;6.53;3.20;;;;;;;;;;5065629;28;20202;-72
2022/10/08 07:56:01;;;;;;;4.80;3.00;;;;;;;;;;5065826;28;20236;-73
2022/10/08 07:58:26;;;;;;;7.33;3.20;;;;;;;;;;5071848;28;20176;-73
2022/10/08 08:00:55;;;;;;;6.20;3.40;;;;;;;;;;5061743;28;20232;-72
2022/10/08 08:03:20;;;;;;;10.43;3.50;;;;;;;;;;5068584;28;20208;-72
2022/10/08 08:05:46;;;;;;;6.60;3.63;;;;;;;;;;5068311;28;20182;-73
2022/10/08 08:08:11;;;;;;;5.10;3.37;;;;;;;;;;5068002;28;20184;-73
2022/10/08 08:10:36;;;;;;;9.03;4.10;;;;;;;;;;5068516;28;20179;-72
2022/10/08 08:13:01;;;;;;;6.00;3.40;;;;;;;;;;5063028;28;20188;-73
2022/10/08 08:15:26;;;;;;;8.57;3.30;;;;;;;;;;5065501;28;20177;-73
2022/10/08 08:17:52;;;;;;;10.17;3.60;;;;;;;;;;5060358;28;20187;-73
2022/10/08 08:20:17;;;;;;;9.60;3.43;;;;;;;;;;5067394;28;20211;-73
2022/10/08 08:22:42;;;;;;;6.77;2.57;;;;;;;;;;5068444;28;20184;-73
2022/10/08 08:25:08;;;;;;;6.30;3.13;;;;;;;;;;5062655;28;20180;-73
2022/10/08 08:27:33;;;;;;;8.37;2.70;;;;;;;;;;5061875;28;20186;-73
2022/10/08 08:29:58;;;;;;;6.93;2.57;;;;;;;;;;5068720;28;20193;-73
2022/10/08 08:32:23;;;;;;;7.83;3.43;;;;;;;;;;5064281;28;20192;-73
2022/10/08 08:34:48;;;;;;;8.77;2.70;;;;;;;;;;5063787;28;20256;-74
2022/10/08 08:37:14;;;;;;;7.53;2.50;;;;;;;;;;5066226;28;20230;-73
2022/10/08 08:39:39;;;;;;;8.30;3.07;;;;;;;;;;5071403;28;20259;-73
2022/10/08 08:42:08;;;;;;;8.17;3.00;;;;;;;;;;5066926;28;20520;-74
2022/10/08 08:44:36;;;;;;;5.70;2.37;;;;;;;;;;5063748;28;20205;-72
2022/10/08 08:47:20;;;;;;;8.57;3.23;;;;;;;;;;5071650;28;20223;-73
2022/10/08 08:49:46;;;;;;;10.33;3.17;;;;;;;;;;5065114;28;20188;-74
2022/10/08 08:52:13;;;;;;;5.90;2.73;;;;;;;;;;5063666;28;20180;-72
2022/10/08 08:54:38;;;;;;;5.77;2.53;;;;;;;;;;5068438;28;20176;-73
2022/10/08 08:57:16;;;;;;;6.83;3.00;;;;;;;;;;5066280;28;20198;-73
2022/10/08 08:59:44;;;;;;;9.70;3.27;;;;;;;;;;5067684;28;20191;-73
2022/10/08 09:02:16;;;;;;;5.33;2.33;;;;;;;;;;5069443;28;20215;-73
2022/10/08 09:04:43;;;;;;;6.63;2.20;;;;;;;;;;5056469;28;20208;-73
2022/10/08 09:07:12;;;;;;;7.50;2.90;;;;;;;;;;5066571;28;20183;-73
2022/10/08 09:09:39;;;;;;;6.83;2.43;;;;;;;;;;5070315;28;20172;-73
2022/10/08 09:12:16;;;;;;;7.20;2.90;;;;;;;;;;5071230;28;20214;-73
2022/10/08 09:14:44;;;;;;;6.33;2.60;;;;;;;;;;5065966;28;20172;-72
2022/10/08 09:17:14;;;;;;;6.13;2.20;;;;;;;;;;5062732;28;20251;-72
2022/10/08 09:19:40;;;;;;;7.87;2.57;;;;;;;;;;5066666;28;20201;-73
2022/10/08 09:22:25;;;;;;;5.77;2.23;;;;;;;;;;5066455;28;20187;-73
2022/10/08 09:24:53;;;;;;;8.27;2.57;;;;;;;;;;5051503;28;20228;-72
2022/10/08 09:27:18;;;;;;;6.97;2.70;;;;;;;;;;5070984;28;20223;-73
2022/10/08 09:29:44;;;;;;;5.40;2.80;;;;;;;;;;5070312;28;20181;-73
2022/10/08 09:32:19;;;;;;;6.73;3.07;;;;;;;;;;5067463;28;20188;-73
2022/10/08 09:34:45;;;;;;;7.10;2.73;;;;;;;;;;5062378;28;20177;-73
2022/10/08 09:37:24;;;;;;;7.70;2.83;;;;;;;;;;5065660;28;20185;-73
2022/10/08 09:40:06;;;;;;;7.87;3.03;;;;;;;;;;5062087;28;20192;-74
2022/10/08 09:42:31;;;;;;;7.70;2.50;;;;;;;;;;5060194;28;20177;-73
2022/10/08 09:44:58;;;;;;;7.57;4.00;;;;;;;;;;5068936;28;20215;-73
2022/10/08 09:47:24;;;;;;;4.00;2.70;;;;;;;;;;5071024;28;20248;-73
2022/10/08 09:50:06;;;;;;;9.77;3.87;;;;;;;;;;5068342;28;20219;-74
2022/10/08 09:52:32;;;;;;;5.63;3.50;;;;;;;;;;5062018;28;20189;-73
2022/10/08 09:55:02;;;;;;;4.90;2.70;;;;;;;;;;5065352;28;20185;-72
2022/10/08 09:57:28;;;;;;;4.77;2.50;;;;;;;;;;5061634;28;20260;-73
2022/10/08 09:59:55;;;;;;;4.27;2.60;;;;;;;;;;5066520;28;20243;-73
2022/10/08 10:02:30;;;;;;;5.80;2.83;;;;;;;;;;5071790;28;20185;-73
2022/10/08 10:04:55;;;;;;;6.13;2.83;;;;;;;;;;5068571;28;20220;-74
2022/10/08 10:07:21;;;;;;;7.33;3.10;;;;;;;;;;5071339;28;20183;-73
2022/10/08 10:09:48;;;;;;;7.43;2.30;;;;;;;;;;5059044;28;20248;-73
2022/10/08 10:12:13;;;;;;;4.27;2.23;;;;;;;;;;5065501;28;20185;-74
2022/10/08 10:14:38;;;;;;;6.03;2.43;;;;;;;;;;5071215;28;20200;-73
2022/10/08 10:17:07;;;;;;;5.90;2.20;;;;;;;;;;5073833;28;20177;-74
2022/10/08 10:19:38;;;;;;;8.83;2.60;;;;;;;;;;5068663;28;20182;-73
2022/10/08 10:22:16;;;;;;;7.63;3.40;;;;;;;;;;5065810;28;20179;-73
2022/10/08 10:24:47;;;;;;;7.43;3.07;;;;;;;;;;5068082;28;20213;-73
2022/10/08 10:27:14;;;;;;;7.80;3.07;;;;;;;;;;5067704;28;20178;-73
2022/10/08 10:29:46;;;;;;;5.80;2.73;;;;;;;;;;5071725;28;20187;-72
2022/10/08 10:32:13;;;;;;;5.73;2.40;;;;;;;;;;5066217;28;20175;-73
2022/10/08 10:34:41;;;;;;;10.77;2.97;;;;;;;;;;5069330;28;20189;-74
2022/10/08 10:37:21;;;;;;;10.57;2.80;;;;;;;;;;5069432;28;20181;-73
2022/10/08 10:39:56;;;;;;;5.73;3.00;;;;;;;;;;5075144;28;20181;-73
2022/10/08 10:42:37;;;;;;;5.97;2.47;;;;;;;;;;5068033;28;20268;-74
2022/10/08 10:45:07;;;;;;;7.03;2.97;;;;;;;;;;5067570;28;20279;-73
2022/10/08 10:47:32;;;;;;;5.03;2.43;;;;;;;;;;5079768;28;20254;-73
2022/10/08 10:49:59;;;;;;;4.37;2.10;;;;;;;;;;5075139;28;20204;-73
2022/10/08 10:52:43;;;;;;;5.07;2.17;;;;;;;;;;5069690;28;20174;-73
2022/10/08 10:55:11;;;;;;;4.60;1.53;;;;;;;;;;5067890;28;20229;-73
2022/10/08 10:57:59;;;;;;;6.97;2.90;;;;;;;;;;5067043;28;20182;-73
2022/10/08 11:00:43;;;;;;;7.60;2.80;;;;;;;;;;5072793;28;20202;-74
2022/10/08 11:03:28;;;;;;;6.97;2.67;;;;;;;;;;5066534;28;20472;-72
2022/10/08 11:06:00;;;;;;;5.53;2.37;;;;;;;;;;5038873;28;20227;-73
2022/10/08 11:08:29;;;;;;;5.77;2.20;;;;;;;;;;5068347;28;20403;-73
2022/10/08 11:11:00;;;;;;;7.23;2.70;;;;;;;;;;5071142;28;20170;-73
2022/10/08 11:13:43;;;;;;;5.80;2.30;;;;;;;;;;5064162;28;20469;-73
2022/10/08 11:16:09;;;;;;;4.23;2.60;;;;;;;;;;5069279;28;20182;-74
2022/10/08 11:18:34;;;;;;;7.70;3.07;;;;;;;;;;5057957;28;20172;-73
2022/10/08 11:21:05;;;;;;;5.25;2.20;;;;;;;;;;5070281;28;20224;-73
2022/10/08 11:23:59;;;;;;;7.53;1.90;;;;;;;;;;5076686;28;20218;-74
2022/10/08 11:26:24;;;;;;;4.13;2.00;;;;;;;;;;5067015;28;20182;-73
2022/10/08 11:29:06;;;;;;;4.28;2.17;;;;;;;;;;5071931;28;20598;-74
2022/10/08 11:31:41;;;;;;;3.17;1.77;;;;;;;;;;5062932;28;20182;-72
2022/10/08 11:34:21;;;;;;;4.47;2.00;;;;;;;;;;5067811;28;20191;-73
2022/10/08 11:36:51;;;;;;;3.77;2.50;;;;;;;;;;5052856;28;20190;-73
2022/10/08 11:39:20;;;;;;;4.80;1.93;;;;;;;;;;5067016;28;20183;-72
2022/10/08 11:42:14;;;;;;;7.10;2.50;;;;;;;;;;5066700;28;20430;-73
2022/10/08 11:44:40;;;;;;;6.07;2.10;;;;;;;;;;5051185;28;20219;-73
2022/10/08 11:47:23;;;;;;;4.50;1.70;;;;;;;;;;5071642;28;20242;-73
2022/10/08 11:49:52;;;;;;;7.23;2.47;;;;;;;;;;5070004;28;20502;-72
2022/10/08 11:52:17;;;;;;;6.67;2.93;;;;;;;;;;5057301;28;20183;-73
2022/10/08 11:54:47;;;;;;;4.30;2.53;;;;;;;;;;5064944;28;20175;-73
2022/10/08 11:57:18;;;;;;;6.00;2.93;;;;;;;;;;5067379;28;20186;-73
2022/10/08 11:59:45;;;;;;;5.63;2.23;;;;;;;;;;5073211;28;20176;-73
2022/10/08 12:02:24;;;;;;;3.43;2.80;;;;;;;;;;5069703;28;20176;-73
2022/10/08 12:04:51;;;;;;;5.57;2.40;;;;;;;;;;5066557;28;20211;-73
2022/10/08 12:07:17;;;;;;;4.90;2.60;;;;;;;;;;5066163;28;20180;-73
2022/10/08 12:09:57;;;;;;;3.50;2.23;;;;;;;;;;5065608;28;20178;-73
2022/10/08 12:12:22;;;;;;;15.70;2.90;;;;;;;;;;5063357;28;20231;-74
2022/10/08 12:14:48;;;;;;;4.70;2.17;;;;;;;;;;5062970;28;20184;-73
2022/10/08 12:17:13;;;;;;;7.20;2.30;;;;;;;;;;5061298;28;20187;-75
2022/10/08 12:19:42;;;;;;;7.23;2.73;;;;;;;;;;5064941;28;20192;-73
2022/10/08 12:22:13;;;;;;;6.37;2.50;;;;;;;;;;5060725;28;20254;-73
2022/10/08 12:24:38;;;;;;;4.57;1.80;;;;;;;;;;5059894;28;20205;-72
2022/10/08 12:27:15;;;;;;;7.23;2.73;;;;;;;;;;5059900;28;20275;-74
2022/10/08 12:29:54;;;;;;;3.90;2.10;;;;;;;;;;5059444;28;20191;-73
2022/10/08 12:32:20;;;;;;;2.53;1.67;;;;;;;;;;5063391;28;20202;-74
2022/10/08 12:34:45;;;;;;;6.73;2.00;;;;;;;;;;5069730;28;20177;-73
2022/10/08 12:37:30;;;;;;;4.73;1.80;;;;;;;;;;5061474;28;20170;-74
2022/10/08 12:39:57;;;;;;;3.37;1.83;;;;;;;;;;5023174;28;20203;-74
2022/10/08 12:42:41;;;;;;;4.27;1.90;;;;;;;;;;5060872;28;20273;-73
2022/10/08 12:45:17;;;;;;;4.67;2.70;;;;;;;;;;5066786;28;20251;-74
2022/10/08 12:47:54;;;;;;;3.63;1.90;;;;;;;;;;5060355;28;20227;-73
2022/10/08 12:50:35;;;;;;;2.90;1.80;;;;;;;;;;5069529;28;20194;-74
2022/10/08 12:53:01;;;;;;;4.67;2.20;;;;;;;;;;5065006;28;20176;-73
2022/10/08 12:55:26;;;;;;;4.83;1.80;;;;;;;;;;5064179;28;20219;-73
2022/10/08 12:57:51;;;;;;;4.40;1.63;;;;;;;;;;5067453;28;20219;-73
2022/10/08 13:00:17;;;;;;;3.47;1.80;;;;;;;;;;5065117;28;20178;-73
2022/10/08 13:02:42;;;;;;;6.10;2.53;;;;;;;;;;5067169;28;20174;-73
2022/10/08 13:05:37;;;;;;;5.17;1.70;;;;;;;;;;5060185;28;20210;-73
2022/10/08 13:08:21;;;;;;;4.97;2.27;;;;;;;;;;5060301;28;20185;-73
2022/10/08 13:10:46;;;;;;;6.27;2.43;;;;;;;;;;5069287;28;20181;-74
2022/10/08 13:13:49;;;;;;;6.20;2.37;;;;;;;;;;5074762;28;20183;-73
2022/10/08 13:16:16;;;;;;;5.60;2.13;;;;;;;;;;5013046;28;20190;-73
2022/10/08 13:18:44;;;;;;;4.00;1.80;;;;;;;;;;5016674;28;20179;-73
2022/10/08 13:21:22;;;;;;;3.73;1.90;;;;;;;;;;5029722;28;20199;-73
2022/10/08 13:23:47;;;;;;;2.13;1.53;;;;;;;;;;5030704;28;20280;-72
2022/10/08 13:26:31;;;;;;;3.13;1.80;;;;;;;;;;5031582;28;20195;-73
2022/10/08 13:29:14;;;;;;;5.90;2.37;;;;;;;;;;5031345;28;20188;-73
2022/10/08 13:31:40;;;;;;;4.13;1.90;;;;;;;;;;5029605;28;20175;-75
2022/10/08 13:34:05;;;;;;;5.30;2.00;;;;;;;;;;5018317;28;20198;-74
2022/10/08 13:36:30;;;;;;;2.23;1.50;;;;;;;;;;5014344;28;20271;-73
2022/10/08 13:38:55;;;;;;;4.73;1.50;;;;;;;;;;5019743;28;20468;-74
2022/10/08 13:41:22;;;;;;;4.37;1.67;;;;;;;;;;5029406;28;20191;-73
2022/10/08 13:43:47;;;;;;;2.00;1.60;;;;;;;;;;4974988;28;20231;-73
2022/10/08 13:46:12;;;;;;;6.20;1.70;;;;;;;;;;4955056;28;20227;-73
2022/10/08 13:48:41;;;;;;;5.00;1.60;;;;;;;;;;4997925;28;20262;-73
2022/10/08 13:51:08;;;;;;;4.10;1.57;;;;;;;;;;5029465;28;20187;-73
2022/10/08 13:53:34;;;;;;;4.87;1.90;;;;;;;;;;5032695;28;20435;-73
2022/10/08 13:55:59;;;;;;;8.90;2.30;;;;;;;;;;5045056;28;20211;-74
2022/10/08 13:58:24;;;;;;;2.63;1.87;;;;;;;;;;5030058;28;20270;-74
2022/10/08 14:00:50;;;;;;;4.77;1.87;;;;;;;;;;5032672;28;20468;-73
2022/10/08 14:03:15;;;;;;;4.47;1.83;;;;;;;;;;5032436;28;20338;-74
2022/10/08 14:05:41;;;;;;;2.33;1.50;;;;;;;;;;5046565;28;20185;-74
2022/10/08 14:08:27;;;;;;;5.03;1.57;;;;;;;;;;5029577;28;20211;-73
2022/10/08 14:10:56;;;;;;;3.37;1.50;;;;;;;;;;5032042;28;20179;-73
2022/10/08 14:13:23;;;;;;;4.57;1.37;;;;;;;;;;5031979;28;20201;-73
2022/10/08 14:15:49;;;;;;;2.77;1.30;;;;;;;;;;5029899;28;20196;-73
2022/10/08 14:18:14;;;;;;;2.50;1.60;;;;;;;;;;5032213;28;20274;-73
2022/10/08 14:20:39;;;;;;;3.03;1.30;;;;;;;;;;5031455;28;20187;-74
2022/10/08 14:23:05;;;;;;;3.10;1.27;;;;;;;;;;5034395;28;20268;-73
2022/10/08 14:25:30;;;;;;;3.47;1.40;;;;;;;;;;5029645;28;20209;-73
2022/10/08 14:27:56;;;;;;;4.23;1.43;;;;;;;;;;5028581;28;20180;-74
2022/10/08 14:30:22;;;;;;;1.10;1.00;;;;;;;;;;5025410;28;20183;-73
2022/10/08 14:32:47;;;;;;;3.23;1.37;;;;;;;;;;5027955;28;20263;-73
2022/10/08 14:35:12;;;;;;;1.10;0.90;;;;;;;;;;5028440;28;20272;-74
2022/10/08 14:37:37;;;;;;;5.30;1.17;;;;;;;;;;5022720;28;20181;-74
2022/10/08 14:40:04;;;;;;;1.87;1.50;;;;;;;;;;5031375;28;20184;-74
2022/10/08 14:42:29;;;;;;;4.07;1.23;;;;;;;;;;5032079;28;20182;-74
2022/10/08 14:44:54;;;;;;;2.83;1.00;;;;;;;;;;5033048;28;20206;-74
2022/10/08 14:47:19;;;;;;;2.87;1.60;;;;;;;;;;5026477;28;20480;-73
2022/10/08 14:49:45;;;;;;;2.50;1.20;;;;;;;;;;5048493;28;20272;-73